Time;durP1;ratioP1;P1;durP2;ratioP2;P2;SDS_P1;SDS_P2;PMS_P1;PMS_P2;Temp;Humidity;BMP_temperature;BMP_pressure;BME280_temperature;BME280_humidity;BME280_pressure;Samples;Min_cycle;Max_cycle;Signal;HPM_P1;HPM_P2
2023/08/12 00:00:11;;;;;;;4.80;4.30;;;;;;;24.60;44.08;95633.75;6250903;27;110159;-63
2023/08/12 00:03:14;;;;;;;4.70;4.30;;;;;;;24.59;43.83;95632.97;6248761;27;109078;-64
2023/08/12 00:06:17;;;;;;;4.10;3.70;;;;;;;24.58;44.08;95625.25;6225065;27;110538;-62
2023/08/12 00:09:22;;;;;;;4.30;3.90;;;;;;;24.58;43.63;95627.94;6244340;27;110278;-65
2023/08/12 00:12:25;;;;;;;4.30;3.88;;;;;;;24.56;44.01;95619.41;6249737;27;109883;-63
2023/08/12 00:15:28;;;;;;;4.40;4.00;;;;;;;24.54;43.70;95616.25;6236506;27;109260;-63
2023/08/12 00:18:36;;;;;;;4.20;3.80;;;;;;;24.54;44.03;95621.63;6224619;27;109158;-63
2023/08/12 00:21:39;;;;;;;4.32;3.90;;;;;;;24.51;43.84;95617.63;6242557;27;109184;-64
2023/08/12 00:24:44;;;;;;;3.90;3.60;;;;;;;24.49;43.75;95620.63;6254421;27;109378;-63
2023/08/12 00:27:47;;;;;;;4.15;3.75;;;;;;;24.49;43.90;95622.50;6257571;27;109207;-65
2023/08/12 00:30:50;;;;;;;3.90;3.60;;;;;;;24.46;44.02;95621.25;6248900;27;109593;-66
2023/08/12 00:33:53;;;;;;;3.67;3.35;;;;;;;24.46;43.85;95620.47;6240009;27;109235;-64
2023/08/12 00:36:57;;;;;;;3.78;3.47;;;;;;;24.47;43.85;95622.81;6234742;27;109121;-64
2023/08/12 00:40:02;;;;;;;3.45;3.15;;;;;;;24.46;43.83;95618.56;6237060;27;109780;-64
2023/08/12 00:43:05;;;;;;;5.30;3.60;;;;;;;24.46;43.83;95615.91;6240265;27;109113;-65
2023/08/12 00:46:08;;;;;;;3.90;3.50;;;;;;;24.45;43.88;95617.00;6239508;27;109197;-65
2023/08/12 00:49:12;;;;;;;3.80;3.40;;;;;;;24.45;43.78;95618.88;6239385;27;109259;-64
2023/08/12 00:52:17;;;;;;;3.65;3.35;;;;;;;24.41;43.98;95616.03;6224662;27;109272;-65
2023/08/12 00:55:22;;;;;;;4.07;3.30;;;;;;;24.43;44.07;95611.16;6235101;27;109082;-65
2023/08/12 00:58:25;;;;;;;3.65;3.35;;;;;;;24.41;43.71;95615.25;6236180;27;109484;-64
2023/08/12 01:01:29;;;;;;;4.00;3.30;;;;;;;24.41;44.12;95605.34;6247954;27;109910;-65
2023/08/12 01:04:32;;;;;;;3.90;3.50;;;;;;;24.40;43.93;95606.44;6236776;27;110176;-66
2023/08/12 01:07:35;;;;;;;4.85;3.72;;;;;;;24.38;43.91;95602.47;6234228;27;109395;-64
2023/08/12 01:10:46;;;;;;;3.30;3.00;;;;;;;24.32;44.00;95604.47;6236101;27;109213;-64
2023/08/12 01:13:58;;;;;;;4.60;3.07;;;;;;;24.34;43.72;95606.84;6253291;27;109274;-64
2023/08/12 01:17:05;;;;;;;4.35;3.00;;;;;;;24.34;43.70;95604.97;6253730;27;112339;-64
2023/08/12 01:20:12;;;;;;;3.75;3.42;;;;;;;24.34;43.74;95609.53;6248394;27;110032;-64
2023/08/12 01:23:17;;;;;;;3.65;2.92;;;;;;;24.34;43.68;95606.84;6234267;27;110129;-64
2023/08/12 01:26:20;;;;;;;3.80;3.40;;;;;;;24.34;43.74;95601.50;6247890;27;110192;-65
2023/08/12 01:29:23;;;;;;;3.37;3.00;;;;;;;24.33;43.79;95594.56;6238793;27;109311;-65
2023/08/12 01:32:33;;;;;;;3.25;2.95;;;;;;;24.31;43.44;95594.88;6234973;27;109615;-63
2023/08/12 01:35:41;;;;;;;3.60;3.20;;;;;;;24.30;43.54;95595.97;6254701;27;109367;-65
2023/08/12 01:38:46;;;;;;;3.50;3.05;;;;;;;24.31;43.37;95591.41;6228169;27;110469;-63
2023/08/12 01:41:51;;;;;;;3.20;2.90;;;;;;;24.30;43.55;95595.97;6245099;27;109353;-64
2023/08/12 01:44:55;;;;;;;4.00;3.10;;;;;;;24.30;43.54;95597.88;6235147;27;110137;-64
2023/08/12 01:47:58;;;;;;;3.30;3.00;;;;;;;24.28;43.33;95586.69;6236515;27;110385;-64
2023/08/12 01:51:02;;;;;;;4.70;3.47;;;;;;;24.27;43.14;95593.91;6252864;27;109040;-64
2023/08/12 01:54:07;;;;;;;4.63;3.30;;;;;;;24.25;43.24;95596.13;6242419;27;109571;-64
2023/08/12 01:57:11;;;;;;;3.00;2.80;;;;;;;24.25;43.34;95596.13;6234639;27;109071;-65
2023/08/12 02:00:14;;;;;;;3.55;3.17;;;;;;;24.24;43.23;95591.06;6224378;27;110998;-63
2023/08/12 02:03:17;;;;;;;3.50;3.20;;;;;;;24.22;43.35;95596.72;6235815;27;109069;-65
2023/08/12 02:06:21;;;;;;;3.90;3.03;;;;;;;24.19;43.36;95590.09;6238842;27;109085;-64
2023/08/12 02:09:25;;;;;;;3.30;3.00;;;;;;;24.19;43.13;95600.00;6233057;27;109362;-65
2023/08/12 02:12:28;;;;;;;3.33;3.03;;;;;;;24.18;43.28;95598.41;6224862;27;110041;-65
2023/08/12 02:15:31;;;;;;;3.22;3.03;;;;;;;24.17;43.40;95602.97;6238673;27;109574;-65
2023/08/12 02:18:35;;;;;;;3.22;2.97;;;;;;;24.16;43.02;95601.41;6232979;27;108771;-65
2023/08/12 02:21:38;;;;;;;3.90;2.50;;;;;;;24.17;43.18;95596.84;6233137;27;109375;-65
2023/08/12 02:24:42;;;;;;;3.30;3.00;;;;;;;24.18;43.40;95603.75;6222705;27;109093;-65
2023/08/12 02:27:45;;;;;;;3.60;3.30;;;;;;;24.18;43.16;95604.56;6233346;27;109103;-65
2023/08/12 02:30:48;;;;;;;3.70;2.90;;;;;;;24.17;42.88;95604.84;6232417;27;109075;-65
2023/08/12 02:33:52;;;;;;;4.10;3.30;;;;;;;24.15;43.14;95607.06;6233538;27;109284;-64
2023/08/12 02:36:55;;;;;;;3.15;2.83;;;;;;;24.17;43.02;95607.53;6227473;28;110062;-65
2023/08/12 02:39:59;;;;;;;3.53;3.00;;;;;;;24.15;43.20;95599.81;6232799;27;109058;-64
2023/08/12 02:43:03;;;;;;;3.30;2.90;;;;;;;24.14;42.94;95613.50;6233016;27;109201;-65
2023/08/12 02:46:06;;;;;;;3.78;3.03;;;;;;;24.11;43.15;95614.91;6221882;27;109445;-62
2023/08/12 02:49:10;;;;;;;5.25;3.00;;;;;;;24.12;43.22;95610.34;6242182;27;108996;-61
2023/08/12 02:52:13;;;;;;;3.17;2.97;;;;;;;24.12;43.14;95618.34;6260218;27;109069;-62
2023/08/12 02:55:17;;;;;;;3.40;3.10;;;;;;;24.14;42.82;95618.84;6238740;27;109248;-61
2023/08/12 02:58:21;;;;;;;3.50;3.20;;;;;;;24.11;43.04;95622.91;6232968;27;109442;-61
2023/08/12 03:01:24;;;;;;;3.50;3.20;;;;;;;24.09;42.90;95619.75;6261802;27;110445;-63
2023/08/12 03:04:27;;;;;;;3.80;3.40;;;;;;;24.10;43.41;95624.00;6246089;27;108983;-62
2023/08/12 03:07:31;;;;;;;3.40;3.03;;;;;;;24.10;43.43;95621.34;6233162;27;108915;-63
2023/08/12 03:10:37;;;;;;;3.90;3.50;;;;;;;24.12;42.96;95623.72;6230939;27;111996;-63
2023/08/12 03:13:40;;;;;;;5.13;4.63;;;;;;;24.14;42.70;95629.53;6236614;27;109288;-63
2023/08/12 03:16:43;;;;;;;4.20;3.80;;;;;;;24.12;42.67;95631.72;6236624;27;109198;-63
2023/08/12 03:19:46;;;;;;;4.57;4.18;;;;;;;24.10;42.60;95632.03;6243392;27;108937;-63
2023/08/12 03:22:49;;;;;;;4.20;3.80;;;;;;;24.10;43.03;95633.91;6254737;27;109111;-63
2023/08/12 03:25:54;;;;;;;5.68;4.82;;;;;;;24.06;42.49;95625.72;6258258;27;109438;-61
2023/08/12 03:28:57;;;;;;;5.97;4.50;;;;;;;23.99;42.66;95627.19;6236774;27;109182;-62
2023/08/12 03:32:00;;;;;;;5.85;4.32;;;;;;;23.95;42.56;95620.88;6225427;27;109473;-62
2023/08/12 03:35:03;;;;;;;6.80;5.70;;;;;;;23.95;42.70;95624.34;6235987;27;109147;-62
2023/08/12 03:38:07;;;;;;;5.97;5.47;;;;;;;23.92;42.55;95632.19;6235255;27;109065;-63
2023/08/12 03:41:11;;;;;;;6.60;6.00;;;;;;;23.89;42.54;95634.38;6249243;27;109161;-64
2023/08/12 03:44:14;;;;;;;5.70;5.20;;;;;;;23.89;42.87;95628.25;6239752;27;109140;-63
2023/08/12 03:47:21;;;;;;;4.93;4.30;;;;;;;23.86;42.81;95626.19;6255484;27;109188;-64
2023/08/12 03:50:24;;;;;;;4.75;3.90;;;;;;;23.86;42.50;95634.19;6254638;27;109300;-65
2023/08/12 03:53:27;;;;;;;5.30;4.50;;;;;;;23.83;42.25;95637.44;6255175;27;109079;-64
2023/08/12 03:56:32;;;;;;;6.22;4.93;;;;;;;23.80;42.69;95646.88;6230983;27;109176;-64
2023/08/12 03:59:35;;;;;;;4.40;4.00;;;;;;;23.78;42.51;95637.56;6236350;27;110112;-63
2023/08/12 04:02:38;;;;;;;4.97;4.40;;;;;;;23.74;42.82;95640.06;6241196;27;110157;-65
2023/08/12 04:05:49;;;;;;;5.70;5.20;;;;;;;23.73;42.72;95635.03;6224809;27;109388;-64
2023/08/12 04:08:52;;;;;;;4.60;4.15;;;;;;;23.74;42.37;95631.25;6246029;27;108960;-64
2023/08/12 04:11:57;;;;;;;4.35;3.80;;;;;;;23.74;42.77;95625.91;6240724;27;109076;-64
2023/08/12 04:15:03;;;;;;;4.82;4.43;;;;;;;23.74;42.86;95632.03;6251707;27;109115;-64
2023/08/12 04:18:06;;;;;;;6.40;5.50;;;;;;;23.75;42.79;95633.63;6250172;27;109656;-63
2023/08/12 04:21:10;;;;;;;4.72;4.22;;;;;;;23.76;42.62;95637.09;6240676;27;110019;-64
2023/08/12 04:24:14;;;;;;;5.55;5.05;;;;;;;23.75;42.31;95640.84;6236157;27;109150;-66
2023/08/12 04:27:18;;;;;;;5.70;5.10;;;;;;;23.74;42.52;95639.28;6234915;27;110066;-64
2023/08/12 04:30:22;;;;;;;4.63;4.23;;;;;;;23.71;42.63;95642.56;6233615;27;109309;-65
2023/08/12 04:33:25;;;;;;;4.50;3.97;;;;;;;22.93;43.75;95639.03;6234776;27;109100;-64
2023/08/12 04:36:28;;;;;;;4.30;4.00;;;;;;;21.91;46.39;95639.94;6234953;27;109215;-65
2023/08/12 04:39:32;;;;;;;6.20;5.60;;;;;;;22.20;45.76;95637.91;6226290;27;109235;-65
2023/08/12 04:42:36;;;;;;;8.60;5.70;;;;;;;22.54;45.56;95642.91;6246358;27;109241;-65
2023/08/12 04:45:39;;;;;;;19.88;16.55;;;;;;;22.87;45.36;95643.69;6241926;27;108983;-64
2023/08/12 04:48:43;;;;;;;28.88;26.48;;;;;;;22.64;46.00;95642.75;6237028;27;110648;-63
2023/08/12 04:51:46;;;;;;;21.90;19.93;;;;;;;22.68;45.38;95643.78;6244437;27;109275;-63
2023/08/12 04:54:49;;;;;;;17.03;15.53;;;;;;;22.88;45.19;95642.59;6248974;27;109418;-63
2023/08/12 04:57:53;;;;;;;13.53;10.70;;;;;;;23.00;44.82;95647.44;6260569;27;109298;-62
2023/08/12 05:00:58;;;;;;;15.30;13.90;;;;;;;23.10;44.46;95649.13;6251478;27;109032;-61
2023/08/12 05:04:01;;;;;;;11.75;10.70;;;;;;;23.12;44.45;95645.06;6238838;27;109616;-63
2023/08/12 05:07:04;;;;;;;9.00;8.10;;;;;;;23.13;44.56;95649.31;6251799;27;109337;-62
2023/08/12 05:10:08;;;;;;;11.23;10.20;;;;;;;23.17;44.47;95649.50;6244727;27;109399;-63
2023/08/12 05:13:12;;;;;;;25.27;23.08;;;;;;;23.25;44.35;95651.50;6244511;27;112095;-62
2023/08/12 05:16:15;;;;;;;19.63;17.93;;;;;;;23.26;44.52;95648.53;6256373;27;109507;-62
2023/08/12 05:19:18;;;;;;;28.40;26.02;;;;;;;23.32;44.46;95651.91;6256480;27;110063;-62
2023/08/12 05:22:21;;;;;;;21.95;20.05;;;;;;;23.31;45.25;95650.31;6251628;27;109544;-62
2023/08/12 05:25:25;;;;;;;11.13;10.13;;;;;;;22.57;47.69;95652.25;6225987;27;110443;-61
2023/08/12 05:28:29;;;;;;;10.82;9.73;;;;;;;22.26;48.20;95654.59;6242970;27;109176;-62
2023/08/12 05:31:32;;;;;;;11.57;10.40;;;;;;;22.38;47.97;95645.06;6235706;27;109090;-63
2023/08/12 05:34:35;;;;;;;9.07;7.80;;;;;;;22.46;47.45;95654.25;6240862;27;109505;-61
2023/08/12 05:37:38;;;;;;;7.90;7.17;;;;;;;22.70;47.82;95659.47;6223578;27;110400;-64
2023/08/12 05:40:42;;;;;;;8.10;7.33;;;;;;;22.84;47.38;95662.16;6244701;27;109480;-61
2023/08/12 05:43:46;;;;;;;7.57;6.15;;;;;;;22.95;46.94;95663.53;6236556;27;109237;-66
2023/08/12 05:46:49;;;;;;;9.20;8.10;;;;;;;23.28;46.00;95658.91;6247230;27;109780;-67
2023/08/12 05:49:52;;;;;;;10.25;6.97;;;;;;;23.58;45.21;95655.63;6239707;27;109309;-65
2023/08/12 05:52:55;;;;;;;7.32;6.65;;;;;;;23.71;44.76;95653.25;6234822;27;109078;-64
2023/08/12 05:55:59;;;;;;;7.47;6.80;;;;;;;23.74;44.94;95650.75;6242190;27;109086;-66
2023/08/12 05:59:03;;;;;;;10.80;9.70;;;;;;;23.77;45.24;95658.16;6246225;27;111575;-66
2023/08/12 06:02:06;;;;;;;7.30;6.60;;;;;;;23.71;45.07;95648.69;6244153;27;109083;-67
2023/08/12 06:05:10;;;;;;;9.15;7.10;;;;;;;23.85;45.09;95649.41;6244008;27;109474;-65
2023/08/12 06:08:13;;;;;;;7.17;5.90;;;;;;;23.95;44.64;95647.63;6236257;27;109192;-65
2023/08/12 06:11:16;;;;;;;7.73;5.30;;;;;;;23.91;44.16;95639.41;6229801;27;109228;-66
2023/08/12 06:14:21;;;;;;;7.17;5.13;;;;;;;23.92;43.68;95642.88;6245915;27;109108;-64
2023/08/12 06:17:24;;;;;;;5.97;5.07;;;;;;;24.03;43.98;95642.38;6250225;27;110168;-67
2023/08/12 06:20:27;;;;;;;7.70;4.60;;;;;;;24.09;43.76;95632.34;6243341;27;109074;-65
2023/08/12 06:23:31;;;;;;;4.83;4.20;;;;;;;24.18;44.34;95631.28;6230307;27;109112;-66
2023/08/12 06:26:34;;;;;;;5.20;3.88;;;;;;;24.25;43.55;95638.13;6257503;27;109075;-64
2023/08/12 06:29:38;;;;;;;7.47;4.03;;;;;;;24.30;43.19;95621.94;6250747;27;110587;-63
2023/08/12 06:32:42;;;;;;;4.97;4.10;;;;;;;24.35;43.27;95633.28;6253336;27;109113;-64
2023/08/12 06:35:45;;;;;;;5.30;3.77;;;;;;;24.42;42.40;95620.28;6237983;27;109429;-63
2023/08/12 06:38:52;;;;;;;4.40;3.83;;;;;;;24.43;42.09;95626.44;6248889;27;109100;-64
2023/08/12 06:41:55;;;;;;;4.88;3.80;;;;;;;24.37;42.13;95619.63;6246253;27;110036;-73
2023/08/12 06:45:03;;;;;;;3.53;3.20;;;;;;;24.50;41.79;95619.53;6240033;27;110268;-73
2023/08/12 06:48:07;;;;;;;4.20;3.30;;;;;;;24.74;41.29;95621.09;6263275;27;108993;-75
2023/08/12 06:51:11;;;;;;;4.43;3.23;;;;;;;24.89;41.16;95610.00;6246079;27;109012;-73
2023/08/12 06:54:14;;;;;;;4.45;3.45;;;;;;;25.01;40.91;95618.19;6263419;27;108901;-73
2023/08/12 06:57:17;;;;;;;3.90;3.08;;;;;;;25.08;40.79;95605.16;6253443;27;110532;-74
2023/08/12 07:00:21;;;;;;;4.57;3.10;;;;;;;25.17;40.66;95607.06;6253597;27;110488;-74
2023/08/12 07:03:25;;;;;;;4.43;3.28;;;;;;;25.24;40.34;95618.13;6238231;27;109556;-74
2023/08/12 07:06:28;;;;;;;4.18;3.30;;;;;;;25.28;40.14;95613.72;6232871;27;109082;-74
2023/08/12 07:09:31;;;;;;;4.78;3.10;;;;;;;25.31;40.36;95608.53;6232921;27;109215;-72
2023/08/12 07:12:35;;;;;;;4.40;3.50;;;;;;;25.36;39.95;95604.94;6256606;27;109274;-64
2023/08/12 07:15:39;;;;;;;4.33;3.40;;;;;;;25.44;40.28;95601.50;6251924;27;109896;-64
2023/08/12 07:18:42;;;;;;;3.88;3.30;;;;;;;25.50;40.07;95608.25;6227558;27;109227;-65
2023/08/12 07:21:45;;;;;;;4.70;3.13;;;;;;;25.57;39.89;95607.81;6236752;27;109114;-66
2023/08/12 07:24:48;;;;;;;3.60;3.05;;;;;;;25.61;39.70;95606.06;6236778;27;109106;-63
2023/08/12 07:27:51;;;;;;;4.57;3.00;;;;;;;25.64;39.71;95611.59;6237178;27;109553;-65
2023/08/12 07:30:56;;;;;;;3.50;3.10;;;;;;;25.67;39.76;95604.81;6228119;27;109404;-66
2023/08/12 07:33:59;;;;;;;4.43;3.10;;;;;;;25.73;39.41;95598.19;6236114;27;109170;-65
2023/08/12 07:37:02;;;;;;;3.60;3.05;;;;;;;25.79;39.82;95594.25;6235754;27;109265;-65
2023/08/12 07:40:06;;;;;;;3.72;3.20;;;;;;;25.82;39.47;95600.88;6241899;27;109094;-64
2023/08/12 07:43:09;;;;;;;3.90;3.50;;;;;;;25.88;40.01;95597.72;6245121;27;109558;-65
2023/08/12 07:46:14;;;;;;;4.18;3.10;;;;;;;25.75;39.41;95590.63;6261692;27;109102;-67
2023/08/12 07:49:17;;;;;;;3.30;3.00;;;;;;;25.47;39.64;95584.78;6262035;27;109332;-65
2023/08/12 07:52:20;;;;;;;3.53;3.00;;;;;;;25.69;39.55;95591.88;6233441;27;108801;-64
2023/08/12 07:55:24;;;;;;;3.45;2.80;;;;;;;25.87;39.37;95592.66;6232143;27;109097;-64
2023/08/12 07:58:29;;;;;;;3.70;3.40;;;;;;;25.96;39.55;95583.50;6235880;28;109128;-65
2023/08/12 08:01:33;;;;;;;3.20;2.90;;;;;;;25.98;39.27;95577.81;6236943;27;109581;-65
2023/08/12 08:04:40;;;;;;;3.80;3.40;;;;;;;26.01;39.27;95579.91;6249860;27;110139;-66
2023/08/12 08:07:44;;;;;;;5.17;3.20;;;;;;;26.07;38.82;95575.97;6235989;27;110394;-65
2023/08/12 08:10:47;;;;;;;3.90;3.27;;;;;;;26.07;39.15;95581.34;6244114;27;109294;-65
2023/08/12 08:13:50;;;;;;;5.60;3.90;;;;;;;26.10;38.65;95583.38;6236547;27;110104;-65
2023/08/12 08:16:54;;;;;;;4.00;3.60;;;;;;;26.14;38.97;95576.25;6243228;27;111672;-65
2023/08/12 08:19:58;;;;;;;3.90;3.50;;;;;;;26.16;39.31;95578.63;6260438;27;109046;-66
2023/08/12 08:23:01;;;;;;;4.10;3.80;;;;;;;26.22;39.05;95572.78;6255096;27;109086;-70
2023/08/12 08:26:04;;;;;;;3.50;3.20;;;;;;;26.23;38.94;95571.69;6244945;27;109130;-71
2023/08/12 08:29:07;;;;;;;3.60;3.30;;;;;;;26.26;39.05;95571.03;6230636;27;109587;-70
2023/08/12 08:32:13;;;;;;;4.70;4.30;;;;;;;26.28;38.57;95565.34;6244642;27;109189;-71
2023/08/12 08:35:16;;;;;;;5.68;4.57;;;;;;;26.31;39.21;95569.28;6256341;27;109121;-71
2023/08/12 08:38:19;;;;;;;5.75;4.30;;;;;;;26.30;38.64;95568.50;6224399;27;109029;-66
2023/08/12 08:41:23;;;;;;;4.05;3.65;;;;;;;26.04;38.94;95565.06;6238050;27;109230;-66
2023/08/12 08:44:30;;;;;;;4.13;3.70;;;;;;;26.06;39.21;95560.19;6236369;27;109252;-67
2023/08/12 08:47:35;;;;;;;4.85;4.00;;;;;;;26.00;38.59;95556.88;6234551;27;109144;-70
2023/08/12 08:50:38;;;;;;;4.00;3.60;;;;;;;26.05;38.39;95562.09;6226400;27;109297;-71
2023/08/12 08:53:42;;;;;;;4.20;3.80;;;;;;;26.14;37.89;95554.78;6240805;27;110071;-71
2023/08/12 08:56:50;;;;;;;4.10;3.70;;;;;;;26.27;37.76;95558.41;6249814;27;109381;-71
2023/08/12 09:00:07;;;;;;;4.28;3.67;;;;;;;26.32;37.84;95544.81;6255053;27;109356;-69
2023/08/12 09:03:21;;;;;;;4.07;3.67;;;;;;;26.37;37.92;95547.31;6231837;27;110082;-70
2023/08/12 09:06:27;;;;;;;4.40;3.70;;;;;;;26.42;37.85;95538.31;6246256;27;109162;-71
2023/08/12 09:09:31;;;;;;;3.93;3.53;;;;;;;26.36;38.20;95536.91;6242364;27;109489;-68
2023/08/12 09:12:36;;;;;;;5.00;4.00;;;;;;;26.09;38.42;95541.56;6241268;27;109060;-69
2023/08/12 09:15:39;;;;;;;12.00;4.00;;;;;;;26.00;38.72;95530.06;6257749;27;109142;-69
2023/08/12 09:18:45;;;;;;;4.53;3.60;;;;;;;25.87;37.50;95541.72;6246934;27;109171;-68
2023/08/12 09:21:53;;;;;;;4.80;3.47;;;;;;;25.66;37.28;95533.53;6254998;27;109154;-69
2023/08/12 09:24:58;;;;;;;5.57;4.40;;;;;;;25.91;37.41;95524.69;6223025;27;109018;-69
2023/08/12 09:28:01;;;;;;;5.40;4.90;;;;;;;25.84;37.69;95527.03;6236450;27;109322;-68
2023/08/12 09:31:04;;;;;;;4.90;4.10;;;;;;;25.35;38.83;95521.06;6234356;27;109152;-68
2023/08/12 09:34:09;;;;;;;4.13;3.70;;;;;;;24.95;38.96;95517.69;6232805;27;109281;-64
2023/08/12 09:37:13;;;;;;;4.10;3.70;;;;;;;25.34;38.39;95510.66;6233534;27;109064;-64
2023/08/12 09:40:17;;;;;;;4.53;3.95;;;;;;;25.56;38.20;95513.22;6258999;27;109293;-64
2023/08/12 09:43:24;;;;;;;4.35;3.95;;;;;;;25.52;38.32;95504.22;6235539;27;110174;-63
2023/08/12 09:46:28;;;;;;;5.43;3.83;;;;;;;25.53;38.77;95503.09;6223410;27;110892;-64
2023/08/12 09:49:33;;;;;;;4.20;3.80;;;;;;;25.54;38.55;95499.34;6250341;27;108935;-64
2023/08/12 09:52:36;;;;;;;3.80;3.50;;;;;;;25.48;38.40;95499.81;6241764;27;109983;-64
2023/08/12 09:55:41;;;;;;;3.83;3.33;;;;;;;25.41;38.04;95494.16;6253985;27;109291;-64
2023/08/12 09:58:48;;;;;;;4.00;3.30;;;;;;;25.33;38.42;95487.63;6223549;27;109331;-64
2023/08/12 10:01:53;;;;;;;3.37;3.07;;;;;;;25.30;38.63;95490.97;6240154;27;109111;-64
2023/08/12 10:04:59;;;;;;;4.30;3.10;;;;;;;25.34;38.52;95489.22;6247843;27;109473;-64
2023/08/12 10:08:04;;;;;;;4.57;2.97;;;;;;;25.90;38.20;95479.41;6236357;27;109338;-66
2023/08/12 10:11:09;;;;;;;3.93;2.93;;;;;;;25.91;37.83;95491.72;6226025;27;109272;-65
2023/08/12 10:14:16;;;;;;;3.60;3.30;;;;;;;25.86;37.77;95476.56;6234281;27;109116;-63
2023/08/12 10:17:20;;;;;;;3.58;3.10;;;;;;;25.96;38.06;95486.97;6235698;27;109050;-65
2023/08/12 10:20:45;;;;;;;3.50;3.10;;;;;;;25.98;38.63;95473.22;6247162;27;109027;-64
2023/08/12 10:23:48;;;;;;;3.53;3.00;;;;;;;25.95;38.84;95476.56;6232887;27;109100;-65
2023/08/12 10:26:52;;;;;;;4.30;2.90;;;;;;;26.03;38.46;95472.28;6239977;27;109326;-63
2023/08/12 10:29:57;;;;;;;3.25;2.90;;;;;;;25.94;38.41;95469.63;6252120;27;110227;-63
2023/08/12 10:33:01;;;;;;;3.43;3.13;;;;;;;25.69;39.19;95457.84;6245715;27;109616;-64
2023/08/12 10:36:06;;;;;;;3.42;3.13;;;;;;;25.79;38.10;95462.09;6253804;27;108998;-64
2023/08/12 10:39:10;;;;;;;3.00;2.70;;;;;;;25.93;37.42;95465.38;6252851;27;109067;-63
2023/08/12 10:42:13;;;;;;;3.40;3.00;;;;;;;25.78;38.28;95452.47;6235959;27;108914;-66
2023/08/12 10:45:18;;;;;;;3.40;3.00;;;;;;;25.65;38.79;95446.97;6228817;27;109539;-65
2023/08/12 10:48:24;;;;;;;3.60;3.30;;;;;;;25.57;39.20;95449.69;6231723;27;109057;-65
2023/08/12 10:51:47;;;;;;;3.70;3.40;;;;;;;25.66;38.92;95437.03;6234571;27;109235;-65
2023/08/12 10:54:50;;;;;;;4.45;3.40;;;;;;;25.62;38.68;95442.25;6224324;27;109214;-65
2023/08/12 10:57:55;;;;;;;3.83;3.20;;;;;;;25.70;38.68;95437.97;6232612;27;109062;-65
2023/08/12 11:00:59;;;;;;;4.40;3.40;;;;;;;25.86;37.92;95430.19;6237426;27;109021;-66
2023/08/12 11:04:02;;;;;;;6.45;3.30;;;;;;;25.99;38.21;95431.91;6248866;27;109588;-66
2023/08/12 11:07:17;;;;;;;3.95;3.22;;;;;;;26.08;38.29;95424.66;6221058;27;109589;-66
2023/08/12 11:10:24;;;;;;;6.43;3.30;;;;;;;26.09;38.39;95426.22;6252802;27;109131;-66
2023/08/12 11:13:28;;;;;;;4.90;3.20;;;;;;;26.09;38.13;95418.16;6247437;27;108994;-65
2023/08/12 11:16:36;;;;;;;3.40;2.75;;;;;;;26.11;37.75;95431.25;6236409;27;109047;-65
2023/08/12 11:19:39;;;;;;;3.10;2.70;;;;;;;26.12;37.83;95420.22;6255553;27;108805;-65
2023/08/12 11:22:45;;;;;;;3.87;3.20;;;;;;;26.14;37.40;95417.97;6237368;27;110375;-66
2023/08/12 11:25:49;;;;;;;4.03;3.00;;;;;;;26.13;37.38;95416.41;6237058;27;110573;-66
2023/08/12 11:28:54;;;;;;;2.90;2.70;;;;;;;26.17;37.33;95421.91;6226014;27;113482;-65
2023/08/12 11:31:58;;;;;;;3.40;3.10;;;;;;;26.15;37.81;95413.41;6243984;27;109527;-65
2023/08/12 11:35:01;;;;;;;3.90;3.60;;;;;;;26.10;38.20;95402.84;6259305;27;109444;-65
2023/08/12 11:38:07;;;;;;;4.10;3.80;;;;;;;26.12;38.19;95412.16;6255490;27;109108;-65
2023/08/12 11:41:11;;;;;;;4.47;3.43;;;;;;;26.15;38.41;95413.41;6249251;27;110236;-65
2023/08/12 11:44:16;;;;;;;3.58;3.28;;;;;;;26.14;38.08;95411.84;6259365;27;109208;-64
2023/08/12 11:47:19;;;;;;;4.38;3.70;;;;;;;26.11;38.24;95407.91;6245827;27;109597;-66
2023/08/12 11:50:24;;;;;;;4.15;3.85;;;;;;;26.11;38.11;95397.16;6252067;27;110215;-66
2023/08/12 11:53:29;;;;;;;3.90;3.50;;;;;;;26.10;38.25;95409.00;6241205;27;109538;-70
2023/08/12 11:56:33;;;;;;;4.05;3.60;;;;;;;26.10;38.16;95400.97;6238858;27;109337;-71
2023/08/12 11:59:37;;;;;;;3.53;3.23;;;;;;;26.09;38.09;95398.59;6241986;27;109217;-70
2023/08/12 12:02:42;;;;;;;4.03;3.45;;;;;;;26.02;38.24;95393.72;6225482;27;109657;-70
2023/08/12 12:05:48;;;;;;;3.40;3.10;;;;;;;26.08;38.39;95389.78;6258430;27;109050;-72
2023/08/12 12:08:54;;;;;;;3.13;2.83;;;;;;;25.98;37.77;95398.13;6244706;27;109287;-71
2023/08/12 12:11:57;;;;;;;3.20;2.90;;;;;;;25.98;36.54;95385.50;6250134;27;109209;-71
2023/08/12 12:15:00;;;;;;;3.10;2.50;;;;;;;25.95;36.49;95394.22;6229552;27;110535;-71
2023/08/12 12:18:03;;;;;;;3.00;2.70;;;;;;;25.96;36.50;95393.09;6250386;27;109226;-70
2023/08/12 12:21:06;;;;;;;2.90;2.70;;;;;;;25.98;36.62;95390.09;6259599;27;108972;-70
2023/08/12 12:24:11;;;;;;;3.07;2.80;;;;;;;25.94;36.65;95378.44;6250377;27;110165;-73
2023/08/12 12:27:15;;;;;;;3.47;2.60;;;;;;;25.86;35.74;95381.94;6225212;27;109126;-73
2023/08/12 12:30:19;;;;;;;2.50;2.30;;;;;;;25.88;34.42;95380.53;6235504;27;109326;-73
2023/08/12 12:33:22;;;;;;;2.50;2.10;;;;;;;25.89;33.56;95379.41;6235300;27;109076;-73
2023/08/12 12:36:25;;;;;;;2.20;2.00;;;;;;;25.90;33.40;95375.63;6227008;27;109676;-68
2023/08/12 12:39:31;;;;;;;2.80;2.00;;;;;;;25.95;33.62;95363.94;6235180;27;109220;-70
2023/08/12 12:42:34;;;;;;;3.13;2.00;;;;;;;26.02;33.91;95364.22;6239109;27;109129;-70
2023/08/12 12:45:37;;;;;;;2.63;2.40;;;;;;;25.88;34.80;95347.56;6260695;27;109273;-71
2023/08/12 12:48:40;;;;;;;3.20;2.73;;;;;;;25.86;34.74;95350.53;6232180;27;110201;-71
2023/08/12 12:51:43;;;;;;;2.73;2.50;;;;;;;25.79;35.43;95354.84;6241264;27;110099;-70
2023/08/12 12:54:48;;;;;;;3.40;2.30;;;;;;;25.72;35.07;95357.25;6245761;27;109209;-72
2023/08/12 12:57:51;;;;;;;3.20;2.80;;;;;;;25.87;34.84;95356.69;6241156;27;109115;-72
2023/08/12 13:00:54;;;;;;;3.53;2.55;;;;;;;25.81;34.91;95355.31;6236154;27;109863;-71
2023/08/12 13:03:57;;;;;;;3.33;2.55;;;;;;;25.91;34.54;95347.69;6252960;27;109728;-69
2023/08/12 13:07:01;;;;;;;2.75;2.55;;;;;;;25.96;35.08;95346.72;6241423;27;109273;-69
2023/08/12 13:10:07;;;;;;;2.63;2.43;;;;;;;25.90;34.91;95348.03;6237610;27;109106;-72
2023/08/12 13:13:10;;;;;;;3.10;2.80;;;;;;;25.95;35.62;95347.84;6239020;27;110055;-71
2023/08/12 13:16:13;;;;;;;3.40;2.70;;;;;;;26.00;36.32;95347.69;6239655;27;110565;-72
2023/08/12 13:19:16;;;;;;;4.35;3.10;;;;;;;26.05;36.36;95355.56;6238853;27;109329;-71
2023/08/12 13:22:19;;;;;;;4.40;3.22;;;;;;;26.06;36.79;95354.44;6226034;27;109098;-71
2023/08/12 13:25:24;;;;;;;3.40;3.10;;;;;;;26.07;36.84;95356.00;6244011;27;110044;-71
2023/08/12 13:28:27;;;;;;;3.78;3.47;;;;;;;26.06;37.17;95349.09;6242504;27;110214;-72
2023/08/12 13:31:30;;;;;;;3.70;3.40;;;;;;;26.07;36.69;95358.69;6242436;27;109038;-70
2023/08/12 13:34:33;;;;;;;3.67;3.30;;;;;;;26.02;37.85;95355.41;6228295;27;110247;-69
2023/08/12 13:37:37;;;;;;;3.45;3.15;;;;;;;25.96;37.40;95354.78;6245945;27;109258;-68
2023/08/12 13:40:41;;;;;;;4.10;3.20;;;;;;;25.97;37.30;95353.66;6245143;27;109212;-69
2023/08/12 13:43:44;;;;;;;3.20;2.90;;;;;;;25.91;37.32;95358.44;6242936;27;109103;-68
2023/08/12 13:46:47;;;;;;;3.70;3.40;;;;;;;26.01;37.32;95361.88;6233937;27;109094;-68
2023/08/12 13:49:51;;;;;;;3.90;3.13;;;;;;;26.01;37.79;95359.19;6241956;27;109048;-68
2023/08/12 13:52:54;;;;;;;3.70;3.25;;;;;;;26.00;36.86;95358.41;6239869;27;109161;-68
2023/08/12 13:55:58;;;;;;;3.33;3.05;;;;;;;26.03;36.77;95355.06;6229472;27;109152;-67
2023/08/12 13:59:01;;;;;;;3.60;3.30;;;;;;;26.02;36.64;95366.91;6240751;27;109758;-69
2023/08/12 14:02:05;;;;;;;4.10;3.70;;;;;;;26.05;36.59;95360.13;6238039;27;110152;-69
2023/08/12 14:05:10;;;;;;;4.20;3.80;;;;;;;26.03;36.56;95365.78;6243848;27;109044;-67
2023/08/12 14:08:13;;;;;;;4.80;4.40;;;;;;;26.02;36.95;95358.06;6229507;27;109388;-68
2023/08/12 14:11:39;;;;;;;5.50;4.93;;;;;;;26.09;36.99;95355.69;6247573;27;109064;-69
2023/08/12 14:14:46;;;;;;;5.60;5.20;;;;;;;26.07;37.35;95366.75;6233043;27;109067;-64